createdAt,value
2019-05-07T12:49:42.860Z,10.40
2019-05-07T12:57:42.237Z,7.42
2019-05-07T13:02:46.886Z,6.80
2019-05-07T13:07:55.801Z,3.95
2019-05-07T13:10:25.083Z,7.67
2019-05-07T13:12:55.846Z,6.37
2019-05-07T13:15:28.706Z,8.40
2019-05-07T13:17:56.346Z,6.55
2019-05-07T13:20:28.354Z,10.40
2019-05-07T13:22:56.296Z,5.67
2019-05-07T13:25:28.638Z,5.05
2019-05-07T13:30:31.336Z,12.30
2019-05-07T13:33:08.140Z,7.65
2019-05-07T13:35:42.019Z,9.68
2019-05-07T13:43:35.242Z,3.17
2019-05-07T13:48:38.417Z,6.87
2019-05-07T13:51:12.187Z,5.28
2019-05-07T13:53:47.461Z,11.45
2019-05-07T13:58:49.357Z,23.62
2019-05-07T14:04:03.782Z,9.08
2019-05-07T14:06:32.799Z,5.58
2019-05-07T14:09:05.908Z,4.95
2019-05-07T14:14:08.556Z,6.08
2019-05-07T14:16:39.281Z,9.25
2019-05-07T14:19:07.984Z,13.65
2019-05-07T14:21:41.976Z,11.28
2019-05-07T14:24:12.417Z,16.12
2019-05-07T14:26:44.249Z,7.58
2019-05-07T14:31:51.736Z,12.65
2019-05-07T14:37:04.762Z,12.00
2019-05-07T14:39:33.109Z,5.17
2019-05-07T14:42:08.339Z,7.28
2019-05-07T14:44:37.254Z,10.18
2019-05-07T14:47:08.164Z,8.98
2019-05-07T14:49:44.176Z,3.58
2019-05-07T14:52:29.048Z,14.75
2019-05-07T14:57:21.962Z,7.72
2019-05-07T14:59:57.273Z,11.12
2019-05-07T15:02:45.354Z,16.67
2019-05-07T15:05:19.779Z,5.15
2019-05-07T15:10:32.855Z,8.08
2019-05-07T15:13:05.602Z,10.85
2019-05-07T15:15:42.637Z,11.12
2019-05-07T15:18:12.548Z,10.90
2019-05-07T15:20:47.265Z,11.90
2019-05-07T15:23:22.565Z,9.78
2019-05-07T15:26:04.646Z,12.03
2019-05-07T15:28:36.596Z,6.95
2019-05-07T15:33:48.487Z,4.60
2019-05-07T15:38:58.019Z,10.15
2019-05-07T15:41:28.321Z,12.15
2019-05-07T15:44:12.063Z,7.17
2019-05-07T15:46:42.795Z,10.35
2019-05-07T15:49:16.444Z,13.28
2019-05-07T15:51:53.011Z,12.28
2019-05-07T15:57:06.979Z,9.15
2019-05-07T15:59:38.450Z,4.80
2019-05-07T16:05:02.201Z,11.18
2019-05-07T16:07:35.093Z,5.00
2019-05-07T16:13:08.321Z,5.80
2019-05-07T16:15:49.748Z,9.88
2019-05-07T16:21:05.620Z,6.22
2019-05-07T16:23:54.862Z,8.95
2019-05-07T16:31:49.219Z,8.80
2019-05-07T16:34:22.028Z,6.35
2019-05-07T16:37:06.820Z,14.73
2019-05-07T16:39:48.490Z,15.35
2019-05-07T16:42:28.315Z,7.17
2019-05-07T16:47:47.094Z,6.08
2019-05-07T16:50:29.715Z,8.30
2019-05-07T16:53:26.470Z,9.80
2019-05-07T16:55:48.842Z,26.00
2019-05-07T16:58:46.349Z,26.93
2019-05-07T17:01:24.595Z,15.45
2019-05-07T17:03:57.968Z,14.87
2019-05-07T17:06:31.913Z,12.70
2019-05-07T17:09:13.536Z,6.75
2019-05-07T17:11:44.320Z,9.03
2019-05-07T17:14:16.823Z,8.55
2019-05-07T17:16:52.927Z,10.13
2019-05-07T17:19:24.383Z,8.58
2019-05-07T17:24:24.659Z,8.43
2019-05-07T17:29:27.748Z,6.25
2019-05-07T17:32:01.665Z,9.28
2019-05-07T17:34:33.205Z,9.23
2019-05-07T17:37:04.853Z,5.53
2019-05-07T17:42:03.740Z,7.12
2019-05-07T17:44:32.419Z,7.40
2019-05-07T17:47:04.067Z,10.15
2019-05-07T17:49:36.571Z,6.65
2019-05-07T17:52:10.569Z,6.87
2019-05-07T17:54:42.432Z,8.68
2019-05-07T17:57:15.923Z,6.97
2019-05-07T17:59:47.090Z,8.25
2019-05-07T18:02:15.248Z,11.85
2019-05-07T18:04:52.189Z,8.90
2019-05-07T18:07:21.788Z,17.87
2019-05-07T18:09:52.448Z,5.28
2019-05-07T18:14:54.472Z,10.28
2019-05-07T18:17:42.078Z,7.75
2019-05-07T18:20:14.010Z,15.78
2019-05-07T18:22:41.938Z,9.43
2019-05-07T18:25:14.982Z,7.40
2019-05-07T18:27:43.900Z,7.85
2019-05-07T18:30:16.061Z,9.35
2019-05-07T18:35:29.250Z,9.70
2019-05-07T18:37:58.080Z,14.40
2019-05-07T18:40:30.557Z,8.78
2019-05-07T18:45:32.171Z,8.85
2019-05-07T18:48:04.989Z,11.10
2019-05-07T18:50:33.923Z,10.13
2019-05-07T18:53:08.754Z,14.87
2019-05-07T18:55:36.809Z,10.75
2019-05-07T18:58:09.190Z,8.83
2019-05-07T19:00:36.916Z,25.30
2019-05-07T19:03:07.979Z,22.52
2019-05-07T19:05:42.420Z,18.70
2019-05-07T19:08:12.542Z,18.70
2019-05-07T19:10:52.218Z,25.85
2019-05-07T19:13:24.448Z,32.55
2019-05-07T19:15:58.221Z,18.60
2019-05-07T19:18:35.282Z,15.50
2019-05-07T19:21:07.424Z,17.23
2019-05-07T19:26:31.257Z,17.15
2019-05-07T19:29:07.772Z,24.00
2019-05-07T19:34:27.401Z,23.90
2019-05-07T19:36:56.892Z,27.37
2019-05-07T19:39:42.766Z,36.38
2019-05-07T19:42:26.343Z,19.82
2019-05-07T19:48:09.393Z,37.35
2019-05-07T19:50:41.999Z,38.15
2019-05-07T19:53:14.873Z,32.65
2019-05-07T19:56:08.188Z,39.40
2019-05-07T19:58:45.234Z,49.08
2019-05-07T20:01:14.955Z,56.60
2019-05-07T20:03:52.691Z,39.55
2019-05-07T20:06:23.366Z,45.58
2019-05-07T20:09:12.112Z,59.35
2019-05-07T20:11:34.547Z,48.50
2019-05-07T20:14:12.491Z,55.08
2019-05-07T20:16:42.060Z,42.48
2019-05-07T20:19:23.083Z,41.85
2019-05-07T20:24:56.014Z,41.45
2019-05-07T20:27:29.735Z,36.05
2019-05-07T20:30:02.980Z,39.92
2019-05-07T20:32:56.515Z,36.45
2019-05-07T20:35:29.457Z,50.75
2019-05-07T20:37:58.416Z,54.38
2019-05-07T20:40:32.026Z,51.95
2019-05-07T20:43:02.821Z,50.35
2019-05-07T20:45:37.390Z,63.78
2019-05-07T20:50:44.497Z,90.03
2019-05-07T20:55:54.167Z,82.62
2019-05-07T21:00:55.875Z,92.25
2019-05-07T21:03:29.386Z,89.30
2019-05-07T21:05:59.192Z,84.28
2019-05-07T21:08:32.048Z,87.70
2019-05-07T21:11:02.525Z,90.75
2019-05-07T21:13:37.102Z,88.58
2019-05-07T21:16:05.318Z,92.25
2019-05-07T21:18:56.743Z,79.27
2019-05-07T21:21:32.715Z,85.65
2019-05-07T21:24:04.755Z,85.38
2019-05-07T21:26:37.768Z,86.60
2019-05-07T21:29:10.293Z,76.42
2019-05-07T21:31:43.359Z,77.37
2019-05-07T21:34:15.513Z,71.07
2019-05-07T21:36:45.974Z,74.72
2019-05-07T21:39:18.009Z,119.30
2019-05-07T21:41:51.864Z,98.55
2019-05-07T21:44:25.305Z,95.03
2019-05-07T21:46:56.710Z,92.95
2019-05-07T21:49:28.607Z,99.10
2019-05-07T21:52:02.752Z,89.55
2019-05-07T21:54:52.546Z,87.67
2019-05-07T21:57:35.200Z,98.60
2019-05-07T22:00:29.647Z,90.42
2019-05-07T22:03:04.480Z,84.00
2019-05-07T22:05:37.542Z,84.25
2019-05-07T22:08:09.927Z,82.92
2019-05-07T22:10:45.849Z,87.20
2019-05-07T22:13:22.073Z,77.37
2019-05-07T22:15:55.143Z,83.52
2019-05-07T22:18:32.045Z,83.07
2019-05-07T22:21:03.813Z,89.83
2019-05-07T22:23:35.152Z,82.77
2019-05-07T22:26:19.243Z,88.85
2019-05-07T22:28:41.951Z,82.50
2019-05-07T22:31:25.163Z,85.83
2019-05-07T22:34:09.883Z,82.70
2019-05-07T22:36:43.948Z,82.27
2019-05-07T22:39:16.702Z,80.53
2019-05-07T22:41:49.922Z,82.30
2019-05-07T22:44:26.061Z,89.90
2019-05-07T22:46:56.070Z,82.53
2019-05-07T22:49:28.902Z,78.57
2019-05-07T22:52:02.379Z,73.60
2019-05-07T22:54:34.622Z,80.15
2019-05-07T22:57:14.254Z,82.33
2019-05-07T22:59:44.529Z,83.87
2019-05-07T23:02:15.003Z,75.93
2019-05-07T23:04:46.383Z,80.93
2019-05-07T23:07:16.778Z,81.33
2019-05-07T23:09:46.882Z,84.33
2019-05-07T23:12:18.735Z,79.47
2019-05-07T23:14:51.806Z,77.23
2019-05-07T23:17:23.672Z,80.07
2019-05-07T23:19:55.581Z,83.30
2019-05-07T23:22:32.410Z,73.97
2019-05-07T23:25:04.297Z,84.90
2019-05-07T23:27:37.709Z,70.90
2019-05-07T23:30:08.726Z,79.93
2019-05-07T23:32:38.977Z,73.67
2019-05-07T23:35:12.686Z,77.13
2019-05-07T23:37:46.480Z,73.83
2019-05-07T23:40:33.128Z,74.77
2019-05-07T23:48:08.653Z,76.00
2019-05-07T23:50:41.832Z,68.00
2019-05-07T23:53:13.014Z,75.43
2019-05-07T23:55:44.136Z,73.17
2019-05-07T23:58:18.102Z,66.53
